sensor_id;sensor_type;location;lat;lon;timestamp;temperature;humidity
21502;DHT22;27639;48.674;9.242;2024-03-02T00:00:12;10.00;59.60
21502;DHT22;27639;48.674;9.242;2024-03-02T00:02:45;10.00;59.60
21502;DHT22;27639;48.674;9.242;2024-03-02T00:05:13;10.00;59.60
21502;DHT22;27639;48.674;9.242;2024-03-02T00:07:42;10.00;59.60
21502;DHT22;27639;48.674;9.242;2024-03-02T00:10:10;10.10;59.50
21502;DHT22;27639;48.674;9.242;2024-03-02T00:12:38;10.10;59.50
21502;DHT22;27639;48.674;9.242;2024-03-02T00:17:55;10.10;59.20
21502;DHT22;27639;48.674;9.242;2024-03-02T00:20:24;10.10;59.30
21502;DHT22;27639;48.674;9.242;2024-03-02T00:23:13;10.10;59.30
21502;DHT22;27639;48.674;9.242;2024-03-02T00:25:51;10.00;59.30
21502;DHT22;27639;48.674;9.242;2024-03-02T00:28:20;10.00;59.40
21502;DHT22;27639;48.674;9.242;2024-03-02T00:30:56;10.00;59.50
21502;DHT22;27639;48.674;9.242;2024-03-02T00:33:34;10.00;59.30
21502;DHT22;27639;48.674;9.242;2024-03-02T00:36:00;10.10;59.40
21502;DHT22;27639;48.674;9.242;2024-03-02T00:38:27;10.00;59.50
21502;DHT22;27639;48.674;9.242;2024-03-02T00:40:53;10.10;59.30
21502;DHT22;27639;48.674;9.242;2024-03-02T00:46:16;10.10;59.00
21502;DHT22;27639;48.674;9.242;2024-03-02T00:48:48;10.00;59.00
21502;DHT22;27639;48.674;9.242;2024-03-02T00:51:16;10.10;58.90
21502;DHT22;27639;48.674;9.242;2024-03-02T00:53:42;10.00;58.90
21502;DHT22;27639;48.674;9.242;2024-03-02T00:56:10;10.00;58.90
21502;DHT22;27639;48.674;9.242;2024-03-02T00:58:37;10.00;59.00
21502;DHT22;27639;48.674;9.242;2024-03-02T01:01:02;10.00;59.00
21502;DHT22;27639;48.674;9.242;2024-03-02T01:03:28;9.90;59.90
21502;DHT22;27639;48.674;9.242;2024-03-02T01:05:54;9.90;60.00
21502;DHT22;27639;48.674;9.242;2024-03-02T01:08:19;10.00;59.20
21502;DHT22;27639;48.674;9.242;2024-03-02T01:10:45;10.00;59.20
21502;DHT22;27639;48.674;9.242;2024-03-02T01:13:10;10.00;59.20
21502;DHT22;27639;48.674;9.242;2024-03-02T01:15:36;9.90;60.10
21502;DHT22;27639;48.674;9.242;2024-03-02T01:18:02;9.90;60.10
21502;DHT22;27639;48.674;9.242;2024-03-02T01:20:27;9.90;60.10
21502;DHT22;27639;48.674;9.242;2024-03-02T01:22:53;9.90;60.10
21502;DHT22;27639;48.674;9.242;2024-03-02T01:25:18;9.90;60.20
21502;DHT22;27639;48.674;9.242;2024-03-02T01:27:44;9.90;60.20
21502;DHT22;27639;48.674;9.242;2024-03-02T01:30:10;9.80;60.20
21502;DHT22;27639;48.674;9.242;2024-03-02T01:32:38;9.80;60.20
21502;DHT22;27639;48.674;9.242;2024-03-02T01:35:04;9.80;60.20
21502;DHT22;27639;48.674;9.242;2024-03-02T01:37:30;9.90;60.20
21502;DHT22;27639;48.674;9.242;2024-03-02T01:39:55;9.90;60.10
21502;DHT22;27639;48.674;9.242;2024-03-02T01:42:21;9.90;60.10
21502;DHT22;27639;48.674;9.242;2024-03-02T01:44:46;9.90;60.10
21502;DHT22;27639;48.674;9.242;2024-03-02T01:47:12;9.90;60.10
21502;DHT22;27639;48.674;9.242;2024-03-02T01:49:37;9.80;60.00
21502;DHT22;27639;48.674;9.242;2024-03-02T01:52:04;9.80;60.00
21502;DHT22;27639;48.674;9.242;2024-03-02T01:54:29;9.80;60.00
21502;DHT22;27639;48.674;9.242;2024-03-02T01:56:55;9.80;60.00
21502;DHT22;27639;48.674;9.242;2024-03-02T01:59:21;9.80;60.00
21502;DHT22;27639;48.674;9.242;2024-03-02T02:01:47;9.80;59.90
21502;DHT22;27639;48.674;9.242;2024-03-02T02:04:13;9.80;59.90
21502;DHT22;27639;48.674;9.242;2024-03-02T02:06:39;9.80;59.80
21502;DHT22;27639;48.674;9.242;2024-03-02T02:09:05;9.80;59.70
21502;DHT22;27639;48.674;9.242;2024-03-02T02:11:31;9.80;59.50
21502;DHT22;27639;48.674;9.242;2024-03-02T02:13:56;9.70;59.50
21502;DHT22;27639;48.674;9.242;2024-03-02T02:16:22;9.70;59.50
21502;DHT22;27639;48.674;9.242;2024-03-02T02:18:47;9.60;59.50
21502;DHT22;27639;48.674;9.242;2024-03-02T02:21:13;9.60;59.50
21502;DHT22;27639;48.674;9.242;2024-03-02T02:23:39;9.50;59.50
21502;DHT22;27639;48.674;9.242;2024-03-02T02:26:04;9.40;59.60
21502;DHT22;27639;48.674;9.242;2024-03-02T02:28:30;9.40;59.70
21502;DHT22;27639;48.674;9.242;2024-03-02T02:30:56;9.40;59.70
21502;DHT22;27639;48.674;9.242;2024-03-02T02:33:22;9.40;59.60
21502;DHT22;27639;48.674;9.242;2024-03-02T02:35:47;9.40;59.60
21502;DHT22;27639;48.674;9.242;2024-03-02T02:38:13;9.30;59.40
21502;DHT22;27639;48.674;9.242;2024-03-02T02:40:38;9.30;59.40
21502;DHT22;27639;48.674;9.242;2024-03-02T02:43:04;9.20;59.40
21502;DHT22;27639;48.674;9.242;2024-03-02T02:45:29;9.20;59.40
21502;DHT22;27639;48.674;9.242;2024-03-02T02:47:55;9.10;59.30
21502;DHT22;27639;48.674;9.242;2024-03-02T02:50:21;9.00;59.30
21502;DHT22;27639;48.674;9.242;2024-03-02T02:52:46;8.90;59.30
21502;DHT22;27639;48.674;9.242;2024-03-02T02:55:13;8.90;59.50
21502;DHT22;27639;48.674;9.242;2024-03-02T02:57:40;8.80;59.50
21502;DHT22;27639;48.674;9.242;2024-03-02T03:00:11;8.80;59.50
21502;DHT22;27639;48.674;9.242;2024-03-02T03:02:40;8.70;59.50
21502;DHT22;27639;48.674;9.242;2024-03-02T03:05:11;8.70;59.60
21502;DHT22;27639;48.674;9.242;2024-03-02T03:07:37;8.70;59.60
21502;DHT22;27639;48.674;9.242;2024-03-02T03:10:05;8.70;59.70
21502;DHT22;27639;48.674;9.242;2024-03-02T03:12:32;8.70;59.70
21502;DHT22;27639;48.674;9.242;2024-03-02T03:14:57;8.70;59.70
21502;DHT22;27639;48.674;9.242;2024-03-02T03:17:23;8.60;60.30
21502;DHT22;27639;48.674;9.242;2024-03-02T03:19:49;8.60;59.80
21502;DHT22;27639;48.674;9.242;2024-03-02T03:22:15;8.50;59.80
21502;DHT22;27639;48.674;9.242;2024-03-02T03:24:41;8.50;59.90
21502;DHT22;27639;48.674;9.242;2024-03-02T03:27:06;8.40;59.90
21502;DHT22;27639;48.674;9.242;2024-03-02T03:29:32;8.40;59.90
21502;DHT22;27639;48.674;9.242;2024-03-02T03:31:58;8.30;59.80
21502;DHT22;27639;48.674;9.242;2024-03-02T03:34:23;8.30;59.90
21502;DHT22;27639;48.674;9.242;2024-03-02T03:36:49;8.30;59.90
21502;DHT22;27639;48.674;9.242;2024-03-02T03:39:14;8.30;59.90
21502;DHT22;27639;48.674;9.242;2024-03-02T03:41:43;8.30;59.80
21502;DHT22;27639;48.674;9.242;2024-03-02T03:44:08;8.30;59.80
21502;DHT22;27639;48.674;9.242;2024-03-02T03:46:34;8.20;59.60
21502;DHT22;27639;48.674;9.242;2024-03-02T03:49:00;8.20;59.60
21502;DHT22;27639;48.674;9.242;2024-03-02T03:51:25;8.20;59.60
21502;DHT22;27639;48.674;9.242;2024-03-02T03:53:51;8.20;59.70
21502;DHT22;27639;48.674;9.242;2024-03-02T03:56:16;8.20;59.70
21502;DHT22;27639;48.674;9.242;2024-03-02T03:58:42;8.20;59.60
21502;DHT22;27639;48.674;9.242;2024-03-02T04:01:08;8.20;59.50
21502;DHT22;27639;48.674;9.242;2024-03-02T04:03:33;8.10;59.50
21502;DHT22;27639;48.674;9.242;2024-03-02T04:05:59;8.10;59.60
21502;DHT22;27639;48.674;9.242;2024-03-02T04:08:24;8.10;59.50
21502;DHT22;27639;48.674;9.242;2024-03-02T04:10:50;8.00;59.40
21502;DHT22;27639;48.674;9.242;2024-03-02T04:13:16;8.00;59.40
21502;DHT22;27639;48.674;9.242;2024-03-02T04:15:41;7.90;59.50
21502;DHT22;27639;48.674;9.242;2024-03-02T04:18:07;7.90;59.50
21502;DHT22;27639;48.674;9.242;2024-03-02T04:20:32;7.80;59.40
21502;DHT22;27639;48.674;9.242;2024-03-02T04:22:58;7.70;59.50
21502;DHT22;27639;48.674;9.242;2024-03-02T04:25:23;7.70;59.70
21502;DHT22;27639;48.674;9.242;2024-03-02T04:27:49;7.70;59.70
21502;DHT22;27639;48.674;9.242;2024-03-02T04:30:14;7.60;59.70
21502;DHT22;27639;48.674;9.242;2024-03-02T04:32:40;7.60;59.70
21502;DHT22;27639;48.674;9.242;2024-03-02T04:35:06;7.60;59.80
21502;DHT22;27639;48.674;9.242;2024-03-02T04:37:35;7.50;59.80
21502;DHT22;27639;48.674;9.242;2024-03-02T04:40:01;7.40;59.80
21502;DHT22;27639;48.674;9.242;2024-03-02T04:42:26;7.40;60.00
21502;DHT22;27639;48.674;9.242;2024-03-02T04:44:52;7.40;59.90
21502;DHT22;27639;48.674;9.242;2024-03-02T04:47:17;7.40;59.90
21502;DHT22;27639;48.674;9.242;2024-03-02T04:49:43;7.30;59.90
21502;DHT22;27639;48.674;9.242;2024-03-02T04:52:09;7.30;59.80
21502;DHT22;27639;48.674;9.242;2024-03-02T04:54:34;7.40;59.90
21502;DHT22;27639;48.674;9.242;2024-03-02T04:57:20;7.30;59.90
21502;DHT22;27639;48.674;9.242;2024-03-02T04:59:45;7.30;59.90
21502;DHT22;27639;48.674;9.242;2024-03-02T05:02:11;7.40;59.90
21502;DHT22;27639;48.674;9.242;2024-03-02T05:04:39;7.30;59.50
21502;DHT22;27639;48.674;9.242;2024-03-02T05:07:05;7.30;59.70
21502;DHT22;27639;48.674;9.242;2024-03-02T05:09:30;7.30;59.70
21502;DHT22;27639;48.674;9.242;2024-03-02T05:11:56;7.20;59.80
21502;DHT22;27639;48.674;9.242;2024-03-02T05:14:37;7.10;59.70
21502;DHT22;27639;48.674;9.242;2024-03-02T05:17:04;7.10;59.80
21502;DHT22;27639;48.674;9.242;2024-03-02T05:19:29;7.10;60.00
21502;DHT22;27639;48.674;9.242;2024-03-02T05:21:55;7.10;60.00
21502;DHT22;27639;48.674;9.242;2024-03-02T05:24:20;7.00;60.00
21502;DHT22;27639;48.674;9.242;2024-03-02T05:26:46;7.00;60.00
21502;DHT22;27639;48.674;9.242;2024-03-02T05:29:11;7.00;60.00
21502;DHT22;27639;48.674;9.242;2024-03-02T05:31:37;7.00;60.00
21502;DHT22;27639;48.674;9.242;2024-03-02T05:34:03;7.00;59.90
21502;DHT22;27639;48.674;9.242;2024-03-02T05:36:28;7.10;59.90
21502;DHT22;27639;48.674;9.242;2024-03-02T05:38:54;7.10;59.70
21502;DHT22;27639;48.674;9.242;2024-03-02T05:41:20;7.10;59.70
21502;DHT22;27639;48.674;9.242;2024-03-02T05:43:46;7.10;59.70
21502;DHT22;27639;48.674;9.242;2024-03-02T05:46:11;7.10;59.70
21502;DHT22;27639;48.674;9.242;2024-03-02T05:48:37;7.00;59.60
21502;DHT22;27639;48.674;9.242;2024-03-02T05:51:03;7.00;59.60
21502;DHT22;27639;48.674;9.242;2024-03-02T05:53:28;7.00;59.70
21502;DHT22;27639;48.674;9.242;2024-03-02T05:55:54;7.00;59.80
21502;DHT22;27639;48.674;9.242;2024-03-02T05:58:24;7.00;59.80
21502;DHT22;27639;48.674;9.242;2024-03-02T06:00:49;7.00;59.70
21502;DHT22;27639;48.674;9.242;2024-03-02T06:03:15;7.00;59.60
21502;DHT22;27639;48.674;9.242;2024-03-02T06:05:40;7.00;59.70
21502;DHT22;27639;48.674;9.242;2024-03-02T06:08:07;6.90;59.70
21502;DHT22;27639;48.674;9.242;2024-03-02T06:10:33;6.90;59.70
21502;DHT22;27639;48.674;9.242;2024-03-02T06:12:58;6.90;59.60
21502;DHT22;27639;48.674;9.242;2024-03-02T06:15:27;6.80;59.60
21502;DHT22;27639;48.674;9.242;2024-03-02T06:17:52;6.80;59.80
21502;DHT22;27639;48.674;9.242;2024-03-02T06:20:18;6.80;59.80
21502;DHT22;27639;48.674;9.242;2024-03-02T06:22:43;6.80;59.80
21502;DHT22;27639;48.674;9.242;2024-03-02T06:25:09;6.80;59.80
21502;DHT22;27639;48.674;9.242;2024-03-02T06:27:34;6.80;59.80
21502;DHT22;27639;48.674;9.242;2024-03-02T06:30:00;6.80;59.80
21502;DHT22;27639;48.674;9.242;2024-03-02T06:32:26;6.80;59.90
21502;DHT22;27639;48.674;9.242;2024-03-02T06:34:51;6.80;59.60
21502;DHT22;27639;48.674;9.242;2024-03-02T06:37:17;6.80;59.60
21502;DHT22;27639;48.674;9.242;2024-03-02T06:39:43;6.80;59.90
21502;DHT22;27639;48.674;9.242;2024-03-02T06:42:09;6.80;60.10
21502;DHT22;27639;48.674;9.242;2024-03-02T06:44:34;6.80;60.20
21502;DHT22;27639;48.674;9.242;2024-03-02T06:47:00;6.80;60.50
21502;DHT22;27639;48.674;9.242;2024-03-02T06:49:25;6.80;60.60
21502;DHT22;27639;48.674;9.242;2024-03-02T06:51:51;6.80;60.80
21502;DHT22;27639;48.674;9.242;2024-03-02T06:54:17;6.80;61.00
21502;DHT22;27639;48.674;9.242;2024-03-02T06:56:42;6.80;61.10
21502;DHT22;27639;48.674;9.242;2024-03-02T06:59:08;6.90;61.40
21502;DHT22;27639;48.674;9.242;2024-03-02T07:01:33;6.90;61.40
21502;DHT22;27639;48.674;9.242;2024-03-02T07:04:00;6.90;61.60
21502;DHT22;27639;48.674;9.242;2024-03-02T07:06:25;7.00;61.80
21502;DHT22;27639;48.674;9.242;2024-03-02T07:08:51;7.10;62.10
21502;DHT22;27639;48.674;9.242;2024-03-02T07:11:16;7.20;62.20
21502;DHT22;27639;48.674;9.242;2024-03-02T07:13:42;7.30;62.30
21502;DHT22;27639;48.674;9.242;2024-03-02T07:16:07;7.40;62.00
21502;DHT22;27639;48.674;9.242;2024-03-02T07:18:36;7.50;61.70
21502;DHT22;27639;48.674;9.242;2024-03-02T07:21:10;7.50;61.50
21502;DHT22;27639;48.674;9.242;2024-03-02T07:23:36;7.60;61.80
21502;DHT22;27639;48.674;9.242;2024-03-02T07:26:01;7.60;61.90
21502;DHT22;27639;48.674;9.242;2024-03-02T07:28:27;7.70;61.90
21502;DHT22;27639;48.674;9.242;2024-03-02T07:31:03;7.80;62.20
21502;DHT22;27639;48.674;9.242;2024-03-02T07:33:30;8.00;62.70
21502;DHT22;27639;48.674;9.242;2024-03-02T07:35:56;8.20;63.00
21502;DHT22;27639;48.674;9.242;2024-03-02T07:38:22;8.40;63.80
21502;DHT22;27639;48.674;9.242;2024-03-02T07:40:49;8.60;62.60
21502;DHT22;27639;48.674;9.242;2024-03-02T07:43:18;8.90;62.30
21502;DHT22;27639;48.674;9.242;2024-03-02T07:45:45;9.00;62.20
21502;DHT22;27639;48.674;9.242;2024-03-02T07:48:10;9.20;61.90
21502;DHT22;27639;48.674;9.242;2024-03-02T07:50:36;9.40;61.60
21502;DHT22;27639;48.674;9.242;2024-03-02T07:53:03;9.40;61.30
21502;DHT22;27639;48.674;9.242;2024-03-02T07:55:29;9.50;61.00
21502;DHT22;27639;48.674;9.242;2024-03-02T07:57:55;9.60;60.80
21502;DHT22;27639;48.674;9.242;2024-03-02T08:00:22;9.60;61.00
21502;DHT22;27639;48.674;9.242;2024-03-02T08:02:48;9.70;61.20
21502;DHT22;27639;48.674;9.242;2024-03-02T08:05:14;9.80;61.10
21502;DHT22;27639;48.674;9.242;2024-03-02T08:07:39;9.90;61.30
21502;DHT22;27639;48.674;9.242;2024-03-02T08:10:06;9.90;61.20
21502;DHT22;27639;48.674;9.242;2024-03-02T08:12:32;9.90;61.20
21502;DHT22;27639;48.674;9.242;2024-03-02T08:14:58;10.00;60.00
21502;DHT22;27639;48.674;9.242;2024-03-02T08:17:23;10.10;59.90
21502;DHT22;27639;48.674;9.242;2024-03-02T08:19:49;10.20;59.80
21502;DHT22;27639;48.674;9.242;2024-03-02T08:22:15;10.30;59.70
21502;DHT22;27639;48.674;9.242;2024-03-02T08:24:41;10.40;59.60
21502;DHT22;27639;48.674;9.242;2024-03-02T08:27:06;10.50;59.30
21502;DHT22;27639;48.674;9.242;2024-03-02T08:29:32;10.60;59.00
21502;DHT22;27639;48.674;9.242;2024-03-02T08:31:58;10.60;58.60
21502;DHT22;27639;48.674;9.242;2024-03-02T08:34:23;10.60;58.70
21502;DHT22;27639;48.674;9.242;2024-03-02T08:36:49;10.70;58.90
21502;DHT22;27639;48.674;9.242;2024-03-02T08:39:15;10.80;58.50
21502;DHT22;27639;48.674;9.242;2024-03-02T08:41:47;11.00;58.40
21502;DHT22;27639;48.674;9.242;2024-03-02T08:44:13;11.10;58.00
21502;DHT22;27639;48.674;9.242;2024-03-02T08:46:39;11.20;57.80
21502;DHT22;27639;48.674;9.242;2024-03-02T08:49:06;11.20;58.30
21502;DHT22;27639;48.674;9.242;2024-03-02T08:51:31;11.30;58.50
21502;DHT22;27639;48.674;9.242;2024-03-02T08:53:57;11.50;58.70
21502;DHT22;27639;48.674;9.242;2024-03-02T08:56:24;11.60;57.80
21502;DHT22;27639;48.674;9.242;2024-03-02T08:58:50;11.80;57.70
21502;DHT22;27639;48.674;9.242;2024-03-02T09:01:16;11.90;57.50
21502;DHT22;27639;48.674;9.242;2024-03-02T09:03:42;12.00;56.80
21502;DHT22;27639;48.674;9.242;2024-03-02T09:06:11;12.10;57.40
21502;DHT22;27639;48.674;9.242;2024-03-02T09:08:37;12.10;56.80
21502;DHT22;27639;48.674;9.242;2024-03-02T09:11:04;12.20;56.80
21502;DHT22;27639;48.674;9.242;2024-03-02T09:13:30;12.30;56.90
21502;DHT22;27639;48.674;9.242;2024-03-02T09:15:56;12.50;57.00
21502;DHT22;27639;48.674;9.242;2024-03-02T09:18:22;12.70;57.00
21502;DHT22;27639;48.674;9.242;2024-03-02T09:20:47;12.80;56.70
21502;DHT22;27639;48.674;9.242;2024-03-02T09:23:13;13.00;56.30
21502;DHT22;27639;48.674;9.242;2024-03-02T09:25:38;13.20;56.30
21502;DHT22;27639;48.674;9.242;2024-03-02T09:28:04;13.30;56.00
21502;DHT22;27639;48.674;9.242;2024-03-02T09:30:30;13.60;56.20
21502;DHT22;27639;48.674;9.242;2024-03-02T09:32:55;13.80;56.20
21502;DHT22;27639;48.674;9.242;2024-03-02T09:35:21;14.00;55.80
21502;DHT22;27639;48.674;9.242;2024-03-02T09:37:46;14.30;55.30
21502;DHT22;27639;48.674;9.242;2024-03-02T09:40:13;14.30;55.10
21502;DHT22;27639;48.674;9.242;2024-03-02T09:42:40;14.50;55.70
21502;DHT22;27639;48.674;9.242;2024-03-02T09:45:06;14.70;54.60
21502;DHT22;27639;48.674;9.242;2024-03-02T09:47:32;14.80;53.80
21502;DHT22;27639;48.674;9.242;2024-03-02T09:49:57;14.90;52.80
21502;DHT22;27639;48.674;9.242;2024-03-02T09:52:23;15.10;52.20
21502;DHT22;27639;48.674;9.242;2024-03-02T09:54:49;15.00;52.50
21502;DHT22;27639;48.674;9.242;2024-03-02T09:57:15;15.10;52.70
21502;DHT22;27639;48.674;9.242;2024-03-02T09:59:41;15.20;52.80
21502;DHT22;27639;48.674;9.242;2024-03-02T10:02:07;15.40;52.10
21502;DHT22;27639;48.674;9.242;2024-03-02T10:04:33;15.60;51.80
21502;DHT22;27639;48.674;9.242;2024-03-02T10:07:14;15.70;51.30
21502;DHT22;27639;48.674;9.242;2024-03-02T10:09:45;15.90;51.10
21502;DHT22;27639;48.674;9.242;2024-03-02T10:12:12;16.00;50.90
21502;DHT22;27639;48.674;9.242;2024-03-02T10:14:39;16.30;50.50
21502;DHT22;27639;48.674;9.242;2024-03-02T10:17:10;16.40;50.30
21502;DHT22;27639;48.674;9.242;2024-03-02T10:19:36;16.50;49.80
21502;DHT22;27639;48.674;9.242;2024-03-02T10:22:04;16.70;49.90
21502;DHT22;27639;48.674;9.242;2024-03-02T10:24:41;16.80;49.30
21502;DHT22;27639;48.674;9.242;2024-03-02T10:27:14;16.90;48.70
21502;DHT22;27639;48.674;9.242;2024-03-02T10:29:40;16.90;49.10
21502;DHT22;27639;48.674;9.242;2024-03-02T10:32:09;17.00;49.10
21502;DHT22;27639;48.674;9.242;2024-03-02T10:34:35;17.10;48.60
21502;DHT22;27639;48.674;9.242;2024-03-02T10:37:01;17.30;48.40
21502;DHT22;27639;48.674;9.242;2024-03-02T10:39:28;17.40;48.10
21502;DHT22;27639;48.674;9.242;2024-03-02T10:41:55;17.50;48.20
21502;DHT22;27639;48.674;9.242;2024-03-02T10:44:22;17.70;47.60
21502;DHT22;27639;48.674;9.242;2024-03-02T10:46:49;17.80;47.30
21502;DHT22;27639;48.674;9.242;2024-03-02T10:49:16;17.90;46.90
21502;DHT22;27639;48.674;9.242;2024-03-02T10:51:43;18.00;46.70
21502;DHT22;27639;48.674;9.242;2024-03-02T10:54:08;17.90;46.80
21502;DHT22;27639;48.674;9.242;2024-03-02T10:59:28;18.10;46.80
21502;DHT22;27639;48.674;9.242;2024-03-02T11:01:59;18.10;46.80
21502;DHT22;27639;48.674;9.242;2024-03-02T11:04:26;18.10;46.20
21502;DHT22;27639;48.674;9.242;2024-03-02T11:06:56;18.00;46.00
21502;DHT22;27639;48.674;9.242;2024-03-02T11:09:27;18.10;46.10
21502;DHT22;27639;48.674;9.242;2024-03-02T11:12:19;18.20;45.10
21502;DHT22;27639;48.674;9.242;2024-03-02T11:14:45;18.20;44.40
21502;DHT22;27639;48.674;9.242;2024-03-02T11:17:13;18.20;45.50
21502;DHT22;27639;48.674;9.242;2024-03-02T11:19:41;18.30;45.10
21502;DHT22;27639;48.674;9.242;2024-03-02T11:22:08;18.40;44.80
21502;DHT22;27639;48.674;9.242;2024-03-02T11:24:34;18.40;45.40
21502;DHT22;27639;48.674;9.242;2024-03-02T11:27:04;18.60;45.30
21502;DHT22;27639;48.674;9.242;2024-03-02T11:29:47;18.60;44.70
21502;DHT22;27639;48.674;9.242;2024-03-02T11:32:21;18.70;44.80
21502;DHT22;27639;48.674;9.242;2024-03-02T11:34:50;18.80;44.90
21502;DHT22;27639;48.674;9.242;2024-03-02T11:37:17;18.80;44.30
21502;DHT22;27639;48.674;9.242;2024-03-02T11:39:44;19.00;44.40
21502;DHT22;27639;48.674;9.242;2024-03-02T11:42:11;19.10;43.60
21502;DHT22;27639;48.674;9.242;2024-03-02T11:44:39;19.20;43.10
21502;DHT22;27639;48.674;9.242;2024-03-02T11:47:08;19.30;42.70
21502;DHT22;27639;48.674;9.242;2024-03-02T11:49:37;19.30;42.30
21502;DHT22;27639;48.674;9.242;2024-03-02T11:52:05;19.40;42.20
21502;DHT22;27639;48.674;9.242;2024-03-02T11:54:36;19.50;41.80
21502;DHT22;27639;48.674;9.242;2024-03-02T11:57:03;19.50;41.80
21502;DHT22;27639;48.674;9.242;2024-03-02T11:59:32;19.40;41.40
21502;DHT22;27639;48.674;9.242;2024-03-02T12:01:58;19.30;41.30
21502;DHT22;27639;48.674;9.242;2024-03-02T12:04:25;19.30;42.30
21502;DHT22;27639;48.674;9.242;2024-03-02T12:06:55;19.40;41.50
21502;DHT22;27639;48.674;9.242;2024-03-02T12:09:21;19.40;41.50
21502;DHT22;27639;48.674;9.242;2024-03-02T12:11:47;19.50;41.60
21502;DHT22;27639;48.674;9.242;2024-03-02T12:14:13;19.50;41.00
21502;DHT22;27639;48.674;9.242;2024-03-02T12:16:38;19.50;41.40
21502;DHT22;27639;48.674;9.242;2024-03-02T12:19:05;19.60;41.30
21502;DHT22;27639;48.674;9.242;2024-03-02T12:21:31;19.70;41.30
21502;DHT22;27639;48.674;9.242;2024-03-02T12:23:57;19.90;41.10
21502;DHT22;27639;48.674;9.242;2024-03-02T12:26:23;20.00;40.70
21502;DHT22;27639;48.674;9.242;2024-03-02T12:28:49;20.00;40.60
21502;DHT22;27639;48.674;9.242;2024-03-02T12:31:15;20.10;40.60
21502;DHT22;27639;48.674;9.242;2024-03-02T12:33:41;20.20;40.90
21502;DHT22;27639;48.674;9.242;2024-03-02T12:36:09;20.10;40.50
21502;DHT22;27639;48.674;9.242;2024-03-02T12:38:37;20.20;40.90
21502;DHT22;27639;48.674;9.242;2024-03-02T12:41:03;20.30;40.60
21502;DHT22;27639;48.674;9.242;2024-03-02T12:43:31;20.30;40.30
21502;DHT22;27639;48.674;9.242;2024-03-02T12:45:59;20.40;40.00
21502;DHT22;27639;48.674;9.242;2024-03-02T12:48:25;20.50;39.80
21502;DHT22;27639;48.674;9.242;2024-03-02T12:50:51;20.60;39.60
21502;DHT22;27639;48.674;9.242;2024-03-02T12:53:16;20.60;38.90
21502;DHT22;27639;48.674;9.242;2024-03-02T12:55:43;20.40;38.40
21502;DHT22;27639;48.674;9.242;2024-03-02T12:58:20;20.50;38.20
21502;DHT22;27639;48.674;9.242;2024-03-02T13:00:48;20.60;37.30
21502;DHT22;27639;48.674;9.242;2024-03-02T13:03:14;20.60;37.40
21502;DHT22;27639;48.674;9.242;2024-03-02T13:05:41;20.70;37.20
21502;DHT22;27639;48.674;9.242;2024-03-02T13:08:06;20.80;37.10
21502;DHT22;27639;48.674;9.242;2024-03-02T13:10:32;20.80;37.10
21502;DHT22;27639;48.674;9.242;2024-03-02T13:12:58;20.90;36.40
21502;DHT22;27639;48.674;9.242;2024-03-02T13:15:26;20.90;36.90
21502;DHT22;27639;48.674;9.242;2024-03-02T13:17:52;20.80;36.90
21502;DHT22;27639;48.674;9.242;2024-03-02T13:20:18;20.80;37.10
21502;DHT22;27639;48.674;9.242;2024-03-02T13:22:44;20.90;36.60
21502;DHT22;27639;48.674;9.242;2024-03-02T13:25:10;20.90;36.20
21502;DHT22;27639;48.674;9.242;2024-03-02T13:27:36;21.00;36.60
21502;DHT22;27639;48.674;9.242;2024-03-02T13:30:03;21.10;36.40
21502;DHT22;27639;48.674;9.242;2024-03-02T13:32:31;21.30;36.50
21502;DHT22;27639;48.674;9.242;2024-03-02T13:34:56;21.40;35.90
21502;DHT22;27639;48.674;9.242;2024-03-02T13:37:22;21.50;35.90
21502;DHT22;27639;48.674;9.242;2024-03-02T13:39:48;21.50;35.90
21502;DHT22;27639;48.674;9.242;2024-03-02T13:42:14;21.50;35.70
21502;DHT22;27639;48.674;9.242;2024-03-02T13:44:43;21.50;36.20
21502;DHT22;27639;48.674;9.242;2024-03-02T13:47:09;21.60;36.20
21502;DHT22;27639;48.674;9.242;2024-03-02T13:49:35;21.60;36.00
21502;DHT22;27639;48.674;9.242;2024-03-02T13:52:07;21.60;35.30
21502;DHT22;27639;48.674;9.242;2024-03-02T13:54:44;21.60;35.60
21502;DHT22;27639;48.674;9.242;2024-03-02T13:57:11;21.50;35.80
21502;DHT22;27639;48.674;9.242;2024-03-02T13:59:37;21.50;35.80
21502;DHT22;27639;48.674;9.242;2024-03-02T14:02:04;21.60;36.10
21502;DHT22;27639;48.674;9.242;2024-03-02T14:04:31;21.60;35.10
21502;DHT22;27639;48.674;9.242;2024-03-02T14:06:58;21.60;35.20
21502;DHT22;27639;48.674;9.242;2024-03-02T14:09:24;21.50;35.00
21502;DHT22;27639;48.674;9.242;2024-03-02T14:11:50;21.30;35.10
21502;DHT22;27639;48.674;9.242;2024-03-02T14:14:17;21.30;35.00
21502;DHT22;27639;48.674;9.242;2024-03-02T14:16:43;21.20;34.70
21502;DHT22;27639;48.674;9.242;2024-03-02T14:19:10;21.00;34.80
21502;DHT22;27639;48.674;9.242;2024-03-02T14:21:37;20.90;35.10
21502;DHT22;27639;48.674;9.242;2024-03-02T14:24:02;20.90;35.00
21502;DHT22;27639;48.674;9.242;2024-03-02T14:26:28;20.90;35.10
21502;DHT22;27639;48.674;9.242;2024-03-02T14:28:54;20.90;35.30
21502;DHT22;27639;48.674;9.242;2024-03-02T14:31:20;20.90;35.20
21502;DHT22;27639;48.674;9.242;2024-03-02T14:33:46;20.80;35.00
21502;DHT22;27639;48.674;9.242;2024-03-02T14:36:11;20.70;34.70
21502;DHT22;27639;48.674;9.242;2024-03-02T14:38:38;20.60;34.60
21502;DHT22;27639;48.674;9.242;2024-03-02T14:41:04;20.50;34.60
21502;DHT22;27639;48.674;9.242;2024-03-02T14:43:29;20.50;34.80
21502;DHT22;27639;48.674;9.242;2024-03-02T14:45:56;20.50;35.10
21502;DHT22;27639;48.674;9.242;2024-03-02T14:48:22;20.50;35.00
21502;DHT22;27639;48.674;9.242;2024-03-02T14:50:48;20.40;35.10
21502;DHT22;27639;48.674;9.242;2024-03-02T14:53:13;20.40;35.10
21502;DHT22;27639;48.674;9.242;2024-03-02T14:55:39;20.40;35.10
21502;DHT22;27639;48.674;9.242;2024-03-02T14:58:04;20.30;35.30
21502;DHT22;27639;48.674;9.242;2024-03-02T15:00:30;20.30;35.30
21502;DHT22;27639;48.674;9.242;2024-03-02T15:02:56;20.20;35.10
21502;DHT22;27639;48.674;9.242;2024-03-02T15:05:21;20.10;34.80
21502;DHT22;27639;48.674;9.242;2024-03-02T15:07:47;20.10;35.00
21502;DHT22;27639;48.674;9.242;2024-03-02T15:10:13;20.00;35.20
21502;DHT22;27639;48.674;9.242;2024-03-02T15:12:38;20.00;34.60
21502;DHT22;27639;48.674;9.242;2024-03-02T15:15:04;20.00;34.50
21502;DHT22;27639;48.674;9.242;2024-03-02T15:17:30;19.90;34.70
21502;DHT22;27639;48.674;9.242;2024-03-02T15:19:55;19.70;34.60
21502;DHT22;27639;48.674;9.242;2024-03-02T15:22:21;19.60;34.20
21502;DHT22;27639;48.674;9.242;2024-03-02T15:24:46;19.50;34.20
21502;DHT22;27639;48.674;9.242;2024-03-02T15:27:12;19.30;33.70
21502;DHT22;27639;48.674;9.242;2024-03-02T15:29:38;19.20;33.70
21502;DHT22;27639;48.674;9.242;2024-03-02T15:32:04;19.00;34.00
21502;DHT22;27639;48.674;9.242;2024-03-02T15:34:33;18.80;35.00
21502;DHT22;27639;48.674;9.242;2024-03-02T15:36:59;18.80;34.70
21502;DHT22;27639;48.674;9.242;2024-03-02T15:39:25;18.70;35.00
21502;DHT22;27639;48.674;9.242;2024-03-02T15:41:51;18.60;34.90